Startpagina
METAR-TAF:

METAR-TAF

Vliegvelden :

Dubai International Airport

Dubai, Verenigde Arabische Emiraten

breedte: 25-15-10N, lengte: 055-21-52E, hoogte: 8 m

Actueel weer

Dit bericht is 1 uur en het 6 minuten geleden gemaakt, om 21:00 UTC
Wind 6 kt uit het noordnoordwesten, variërend tussen het westnoordwesten en het noordoosten
Temperatuur 34°C
Vochtigheid 80%
Druk 996 hPa
Zicht: 8000 m

METAR: OMDB 182100Z 34006KT 300V040 8000 NSC 34/30 Q0996 NOSIG

Tijdstip: 02:06 (22:06 UTC)

Verwachting

Dit bericht is 5 uur en het 6 minuten geleden gemaakt, om 17:00 UTC
Verwachting geldig van 18 om 18 UTC tot 20 om 00 UTC
Wind 5 kt uit het oosten
Zicht: 8000 m
Wijzigt naar
van 19 om 04 UTC tot 19 om 06 UTC
Wind 10 kt uit het zuidzuidoosten
Wijzigt naar
van 19 om 07 UTC tot 19 om 09 UTC
Wind 12 kt uit het noordnoordwesten
Wijzigt naar
van 19 om 19 UTC tot 19 om 21 UTC
Wind 5 kt uit het oosten

TAF: OMDB 181700Z 1818/2000 09005KT 8000 NSC BECMG 1904/1906 16010KT BECMG 1907/1909 33012KT BECMG 1919/1921 08005KT

Waarnemingen en weersverwachtingen van meer dan 4000 vliegvelden (METAR en TAF).

De beschikbare stations zijn de gele en rode punten op de kaart.

Ga met uw muis naar het station om de naam te zien.

Klik dan om waarnemingen en weersverwachtingen te zien.

kaart wijzigen: klik op de groene knoppen met een zwart kruis om in te zoomen, op de groene knop met een streepje om uit te zoomen of op de groene pijlen voor aangrenzende kaarten.


METAR-TAF: